Time;durP1;ratioP1;P1;durP2;ratioP2;P2;SDS_P1;SDS_P2;PMS_P1;PMS_P2;Temp;Humidity;BMP_temperature;BMP_pressure;BME280_temperature;BME280_humidity;BME280_pressure;Samples;Min_cycle;Max_cycle;Signal;HPM_P1;HPM_P2
2021/11/06 00:00:19;;;;;;;;;8.75;8.00;;;;;16.51;52.80;99388.00;4823131;29;102150;-90
2021/11/06 00:02:46;;;;;;;;;8.25;6.75;;;;;16.50;52.75;99389.06;4810256;28;102518;-90
2021/11/06 00:05:14;;;;;;;;;8.25;8.00;;;;;16.51;52.60;99382.53;4806944;29;110299;-90
2021/11/06 00:07:41;;;;;;;;;7.00;6.50;;;;;16.50;53.29;99389.91;4798903;29;104494;-90
2021/11/06 00:10:11;;;;;;;;;8.50;7.50;;;;;16.50;52.96;99394.50;4806938;29;103461;-89
2021/11/06 00:12:39;;;;;;;;;6.75;6.75;;;;;16.49;52.41;99388.22;4779412;29;110887;-90
2021/11/06 00:15:06;;;;;;;;;10.00;8.00;;;;;16.49;53.12;99390.09;4794712;29;102554;-90
2021/11/06 00:17:35;;;;;;;;;9.00;8.50;;;;;16.47;52.64;99384.88;4789643;29;103305;-89
2021/11/06 00:20:05;;;;;;;;;11.25;9.00;;;;;16.45;52.43;99383.41;4794272;29;102440;-90
2021/11/06 00:22:33;;;;;;;;;8.00;8.00;;;;;16.47;52.88;99393.06;4802231;29;102511;-90
2021/11/06 00:25:02;;;;;;;;;11.00;9.50;;;;;16.46;52.61;99393.28;4794862;29;102389;-90
2021/11/06 00:27:31;;;;;;;;;9.00;7.00;;;;;16.47;52.76;99386.78;4792416;29;105253;-90
2021/11/06 00:29:58;;;;;;;;;8.00;6.75;;;;;16.47;52.38;99394.97;4805910;29;102535;-90
2021/11/06 00:32:25;;;;;;;;;7.50;7.25;;;;;16.45;52.62;99389.72;4800782;29;102481;-90
2021/11/06 00:34:52;;;;;;;;;10.75;9.25;;;;;16.46;52.21;99390.56;4810863;29;103029;-90
2021/11/06 00:37:19;;;;;;;;;8.00;8.00;;;;;16.48;52.90;99396.63;4799327;29;109672;-90
2021/11/06 00:39:46;;;;;;;;;8.50;8.00;;;;;16.45;52.66;99394.31;4809085;29;102736;-90
2021/11/06 00:42:13;;;;;;;;;8.67;8.00;;;;;16.45;52.37;99405.25;4801742;29;102393;-90
2021/11/06 00:44:40;;;;;;;;;9.00;8.50;;;;;16.45;52.56;99397.06;4805794;29;103388;-89
2021/11/06 00:47:07;;;;;;;;;10.25;8.50;;;;;16.44;52.69;99398.94;4806864;29;104023;-90
2021/11/06 00:49:34;;;;;;;;;8.25;7.00;;;;;16.44;52.91;99393.50;4804422;29;102290;-90
2021/11/06 00:52:02;;;;;;;;;8.50;7.50;;;;;16.43;52.78;99393.72;4806445;29;102626;-90
2021/11/06 00:54:29;;;;;;;;;10.75;8.50;;;;;16.44;52.68;99400.84;4802588;29;102657;-89
2021/11/06 00:56:56;;;;;;;;;8.50;7.75;;;;;16.43;52.81;99401.91;4802765;29;104070;-90
2021/11/06 00:59:23;;;;;;;;;8.00;7.67;;;;;16.42;52.82;99398.34;4810158;29;102408;-90
2021/11/06 01:01:54;;;;;;;;;8.75;8.00;;;;;16.41;52.71;99399.41;4781299;29;102673;-90
2021/11/06 01:04:21;;;;;;;;;10.33;8.00;;;;;16.41;52.98;99404.03;4786158;29;102574;-90
2021/11/06 01:06:49;;;;;;;;;9.50;8.25;;;;;16.41;52.40;99399.41;4800872;29;103871;-90
2021/11/06 01:09:16;;;;;;;;;9.25;8.50;;;;;16.42;52.63;99413.88;4822776;29;103845;-90
2021/11/06 01:11:43;;;;;;;;;9.25;8.50;;;;;16.42;52.56;99406.53;4815857;29;102623;-90
2021/11/06 01:14:10;;;;;;;;;9.25;8.00;;;;;16.41;52.37;99406.75;4823018;29;102187;-89
2021/11/06 01:16:37;;;;;;;;;8.33;8.00;;;;;16.41;53.17;99417.66;4828853;29;104289;-90
2021/11/06 01:19:04;;;;;;;;;7.00;6.50;;;;;16.41;52.63;99414.94;4814494;28;110973;-90
2021/11/06 01:21:32;;;;;;;;;9.75;8.75;;;;;16.40;52.90;99410.53;4825046;28;102168;-89
2021/11/06 01:23:59;;;;;;;;;9.00;7.00;;;;;16.40;53.01;99408.63;4819039;29;103798;-90
2021/11/06 01:26:26;;;;;;;;;8.00;7.25;;;;;16.40;52.94;99413.25;4818912;29;104701;-90
2021/11/06 01:28:53;;;;;;;;;8.75;7.00;;;;;16.41;52.38;99412.22;4828108;28;102498;-89
2021/11/06 01:31:20;;;;;;;;;7.00;7.00;;;;;16.39;52.16;99411.59;4831858;29;104685;-90
2021/11/06 01:33:47;;;;;;;;;8.75;7.50;;;;;16.39;51.92;99422.53;4825960;29;104984;-90
2021/11/06 01:36:14;;;;;;;;;8.00;7.50;;;;;16.37;52.64;99413.69;4803129;29;104087;-90
2021/11/06 01:38:43;;;;;;;;;7.50;7.00;;;;;16.38;52.56;99412.66;4829646;29;102474;-90
2021/11/06 01:41:11;;;;;;;;;8.50;7.25;;;;;16.37;52.47;99413.69;4808232;29;103093;-89
2021/11/06 01:43:38;;;;;;;;;10.33;9.00;;;;;16.37;52.47;99414.53;4801863;29;103146;-90
2021/11/06 01:46:06;;;;;;;;;9.25;7.00;;;;;16.36;53.08;99412.88;4811239;29;103984;-89
2021/11/06 01:48:33;;;;;;;;;9.50;8.25;;;;;16.36;52.15;99412.88;4824714;28;102141;-90
2021/11/06 01:51:00;;;;;;;;;10.00;7.33;;;;;16.37;52.12;99409.09;4823359;28;105599;-90
2021/11/06 01:53:28;;;;;;;;;9.67;8.00;;;;;16.38;52.22;99418.94;4834681;29;102689;-90
2021/11/06 01:55:55;;;;;;;;;8.33;6.33;;;;;16.36;52.98;99401.09;4812069;29;104043;-90
2021/11/06 01:58:23;;;;;;;;;12.00;8.50;;;;;16.37;52.22;99410.97;4833223;28;102108;-90
2021/11/06 02:00:50;;;;;;;;;6.67;6.67;;;;;16.36;52.49;99393.75;4795298;29;103823;-90
2021/11/06 02:03:17;;;;;;;;;8.25;6.75;;;;;16.36;52.94;99392.91;4802662;28;103851;-89
2021/11/06 02:05:44;;;;;;;;;11.25;9.00;;;;;16.36;52.13;99404.69;4809281;29;104375;-89
2021/11/06 02:08:13;;;;;;;;;8.00;7.00;;;;;16.34;52.45;99397.78;4819126;29;102581;-89
2021/11/06 02:10:41;;;;;;;;;8.50;7.50;;;;;16.33;52.33;99401.56;4789925;29;102194;-90
2021/11/06 02:13:08;;;;;;;;;8.00;7.00;;;;;16.34;52.40;99403.22;4818521;29;102487;-89
2021/11/06 02:15:40;;;;;;;;;6.33;6.00;;;;;16.33;52.06;99404.28;4830508;29;104517;-89
2021/11/06 02:18:07;;;;;;;;;8.67;8.00;;;;;16.34;52.06;99400.50;4830229;28;104375;-89
2021/11/06 02:20:35;;;;;;;;;6.00;6.00;;;;;16.33;52.22;99405.13;4824115;28;102670;-90
2021/11/06 02:23:05;;;;;;;;;8.67;7.00;;;;;16.33;52.60;99401.56;4832325;28;102524;-90
2021/11/06 02:25:32;;;;;;;;;9.33;9.00;;;;;16.32;51.99;99408.91;4830095;29;103299;-89
2021/11/06 02:28:19;;;;;;;;;8.00;7.00;;;;;16.33;52.23;99407.00;4823862;29;104212;-89
2021/11/06 02:30:47;;;;;;;;;6.50;6.00;;;;;16.33;52.69;99407.00;4837158;29;103427;-90
2021/11/06 02:33:14;;;;;;;;;8.00;6.50;;;;;16.33;52.67;99407.00;4838374;28;103586;-90
2021/11/06 02:35:42;;;;;;;;;7.75;7.00;;;;;16.33;52.27;99412.47;4845031;28;102351;-90
2021/11/06 02:38:11;;;;;;;;;7.00;6.00;;;;;16.32;52.36;99406.16;4843048;28;102131;-90
2021/11/06 02:40:38;;;;;;;;;8.00;8.00;;;;;16.32;52.71;99413.50;4847854;28;101522;-90
2021/11/06 02:43:06;;;;;;;;;7.00;5.67;;;;;16.32;52.44;99405.31;4844929;28;101926;-90
2021/11/06 02:45:34;;;;;;;;;12.25;7.25;;;;;16.32;52.01;99402.59;4838318;28;103265;-90
2021/11/06 02:48:01;;;;;;;;;8.00;7.00;;;;;16.31;52.56;99414.56;4851870;28;101965;-90
2021/11/06 02:50:28;;;;;;;;;8.00;6.75;;;;;16.32;52.03;99410.78;4840153;28;103345;-90
2021/11/06 02:52:56;;;;;;;;;7.75;6.75;;;;;16.29;52.17;99411.22;4839562;28;102431;-90
2021/11/06 02:55:23;;;;;;;;;6.25;6.00;;;;;16.30;52.13;99413.72;4831791;29;112376;-90
2021/11/06 02:57:50;;;;;;;;;6.50;5.00;;;;;16.30;52.19;99418.38;4826466;28;102188;-89
2021/11/06 03:00:17;;;;;;;;;8.75;7.00;;;;;16.30;52.81;99410.19;4816159;28;102953;-90
2021/11/06 03:02:44;;;;;;;;;6.25;6.00;;;;;16.29;52.28;99424.88;4813766;29;102505;-89
2021/11/06 03:05:12;;;;;;;;;10.75;7.75;;;;;16.28;51.76;99421.31;4821987;29;104129;-90
2021/11/06 03:07:39;;;;;;;;;9.25;6.50;;;;;16.28;52.41;99413.13;4816593;29;102669;-90
2021/11/06 03:10:08;;;;;;;;;8.25;7.75;;;;;16.28;51.74;99418.56;4823294;29;102543;-90
2021/11/06 03:12:35;;;;;;;;;9.25;8.00;;;;;16.29;52.52;99416.69;4821271;29;103033;-90
2021/11/06 03:15:03;;;;;;;;;6.33;6.00;;;;;16.28;52.29;99412.28;4799412;29;105114;-90
2021/11/06 03:17:31;;;;;;;;;6.25;5.75;;;;;16.28;52.28;99413.13;4811840;29;102273;-90
2021/11/06 03:19:58;;;;;;;;;12.00;8.00;;;;;16.27;52.29;99421.50;4818757;29;102418;-90
2021/11/06 03:22:25;;;;;;;;;7.50;6.50;;;;;16.28;51.72;99421.31;4812321;29;103903;-89
2021/11/06 03:24:52;;;;;;;;;8.00;6.00;;;;;16.27;52.13;99414.16;4821418;28;105693;-89
2021/11/06 03:27:19;;;;;;;;;6.75;6.75;;;;;16.26;52.13;99417.94;4823172;28;102427;-89
2021/11/06 03:29:46;;;;;;;;;9.75;7.25;;;;;16.27;52.07;99422.34;4822072;28;102587;-89
2021/11/06 03:32:13;;;;;;;;;6.50;6.25;;;;;16.26;52.10;99417.09;4831986;29;102692;-89
2021/11/06 03:34:40;;;;;;;;;7.00;5.25;;;;;16.26;52.61;99420.69;4826875;29;104062;-90
2021/11/06 03:37:07;;;;;;;;;6.00;5.00;;;;;16.26;52.73;99425.28;4818543;29;102585;-88
2021/11/06 03:39:35;;;;;;;;;7.25;7.00;;;;;16.26;52.69;99422.56;4818923;28;102496;-89
2021/11/06 03:42:04;;;;;;;;;5.75;5.00;;;;;16.25;52.41;99429.94;4812592;29;102401;-89
2021/11/06 03:44:31;;;;;;;;;9.67;7.33;;;;;16.25;51.77;99431.84;4818891;28;104454;-88
2021/11/06 03:46:58;;;;;;;;;7.50;6.50;;;;;16.24;52.38;99433.72;4822745;28;102651;-89
2021/11/06 03:49:28;;;;;;;;;6.00;5.50;;;;;16.25;52.49;99437.28;4803747;29;102660;-90
2021/11/06 03:51:56;;;;;;;;;6.50;6.00;;;;;16.23;51.86;99434.75;4830573;28;102811;-90
2021/11/06 03:54:23;;;;;;;;;8.25;7.75;;;;;16.24;52.63;99441.06;4826067;29;109214;-90
2021/11/06 03:56:50;;;;;;;;;7.00;6.50;;;;;16.24;52.50;99441.06;4829627;29;102220;-90
2021/11/06 03:59:17;;;;;;;;;5.00;5.00;;;;;16.24;52.05;99441.91;4819970;29;102499;-89
2021/11/06 04:01:44;;;;;;;;;6.00;6.00;;;;;16.24;52.15;99454.72;4825127;28;102552;-88
2021/11/06 04:04:11;;;;;;;;;7.00;6.00;;;;;16.24;52.14;99460.16;4828022;29;104068;-89
2021/11/06 04:06:38;;;;;;;;;5.67;5.00;;;;;16.23;52.17;99455.75;4819106;28;104673;-89
2021/11/06 04:09:05;;;;;;;;;6.00;6.00;;;;;16.23;51.83;99455.75;4818619;29;102415;-89
2021/11/06 04:11:32;;;;;;;;;6.25;5.00;;;;;16.21;52.19;99461.41;4820926;29;102541;-89
2021/11/06 04:13:59;;;;;;;;;5.75;5.50;;;;;16.22;52.07;99456.81;4807399;28;104346;-89
2021/11/06 04:16:26;;;;;;;;;6.00;6.00;;;;;16.21;52.21;99463.34;4818336;28;103162;-89
2021/11/06 04:18:53;;;;;;;;;7.00;6.00;;;;;16.20;52.21;99450.75;4829436;29;102502;-89
2021/11/06 04:21:20;;;;;;;;;6.00;5.50;;;;;16.20;52.00;99469.84;4820351;29;103459;-88
2021/11/06 04:23:47;;;;;;;;;6.75;6.50;;;;;16.20;52.10;99464.38;4818226;28;104438;-89
2021/11/06 04:26:14;;;;;;;;;6.00;5.25;;;;;16.20;52.55;99462.50;4829364;29;102174;-88
2021/11/06 04:28:41;;;;;;;;;6.00;5.00;;;;;16.19;52.25;99469.00;4825265;28;102219;-89
2021/11/06 04:31:08;;;;;;;;;5.75;5.25;;;;;16.20;51.96;99467.13;4814272;29;102690;-89
2021/11/06 04:33:35;;;;;;;;;6.67;6.00;;;;;16.19;51.97;99470.88;4831261;28;104059;-89
2021/11/06 04:36:02;;;;;;;;;7.25;7.00;;;;;16.19;51.89;99473.63;4823182;29;102561;-89
2021/11/06 04:38:29;;;;;;;;;7.00;5.75;;;;;16.19;52.28;99476.34;4799624;29;102620;-89
2021/11/06 04:40:56;;;;;;;;;5.50;5.50;;;;;16.20;51.78;99476.13;4828399;29;102930;-89
2021/11/06 04:43:23;;;;;;;;;5.50;5.00;;;;;16.19;52.65;99470.88;4829484;28;107773;-89
2021/11/06 04:45:50;;;;;;;;;5.00;5.00;;;;;16.19;52.49;99490.00;4819722;29;102887;-88
2021/11/06 04:48:17;;;;;;;;;6.50;5.75;;;;;16.17;51.60;99490.19;4819574;29;103408;-89
2021/11/06 04:50:44;;;;;;;;;7.75;6.00;;;;;16.17;52.09;99490.19;4826058;29;102210;-89
2021/11/06 04:53:11;;;;;;;;;5.25;5.00;;;;;16.17;52.37;99483.91;4819538;29;104111;-89
2021/11/06 04:55:38;;;;;;;;;5.50;5.00;;;;;16.16;52.06;99483.09;4823574;29;104151;-89
2021/11/06 04:58:05;;;;;;;;;5.25;5.25;;;;;16.16;52.25;99487.69;4822576;29;103358;-89
2021/11/06 05:00:32;;;;;;;;;9.00;6.50;;;;;16.16;52.64;99487.69;4818366;28;103853;-89
2021/11/06 05:02:59;;;;;;;;;4.00;4.00;;;;;16.16;51.63;99493.16;4823100;29;104269;-89
2021/11/06 05:05:26;;;;;;;;;6.67;5.00;;;;;16.14;52.58;99485.19;4822318;29;102195;-89
2021/11/06 05:07:55;;;;;;;;;6.00;5.67;;;;;16.14;51.88;99496.09;4814200;28;102459;-89
2021/11/06 05:10:22;;;;;;;;;7.25;5.00;;;;;16.15;52.17;99496.94;4799092;29;102421;-89
2021/11/06 05:12:50;;;;;;;;;6.33;5.67;;;;;16.14;52.22;99498.81;4820928;29;104068;-89
2021/11/06 05:15:17;;;;;;;;;9.67;8.00;;;;;16.14;51.75;99495.25;4819116;29;103457;-89
2021/11/06 05:17:44;;;;;;;;;5.00;5.00;;;;;16.15;51.61;99507.84;4805634;29;103985;-89
2021/11/06 05:20:11;;;;;;;;;4.00;4.00;;;;;16.13;51.76;99499.03;4827107;28;102459;-88
2021/11/06 05:22:38;;;;;;;;;4.00;4.00;;;;;16.14;51.64;99507.00;4814504;28;104110;-89
2021/11/06 05:25:07;;;;;;;;;6.00;5.00;;;;;16.13;52.28;99499.88;4823841;29;102589;-89
2021/11/06 05:27:34;;;;;;;;;7.00;6.75;;;;;16.14;51.78;99511.63;4814068;29;102447;-89
2021/11/06 05:30:03;;;;;;;;;6.00;6.00;;;;;16.13;51.69;99507.22;4793367;29;103027;-89
2021/11/06 05:32:31;;;;;;;;;6.67;6.00;;;;;16.12;52.09;99513.75;4818893;28;104309;-89
2021/11/06 05:34:58;;;;;;;;;8.00;7.00;;;;;16.13;51.75;99512.66;4809512;29;102580;-88
2021/11/06 05:37:26;;;;;;;;;5.33;5.00;;;;;16.12;52.15;99519.19;4818414;28;102431;-89
2021/11/06 05:39:53;;;;;;;;;7.00;5.25;;;;;16.11;51.83;99523.81;4819864;29;103763;-88
2021/11/06 05:42:20;;;;;;;;;4.00;3.00;;;;;16.11;51.95;99529.28;4813582;29;104308;-89
2021/11/06 05:44:47;;;;;;;;;4.00;4.00;;;;;16.11;52.31;99528.44;4807002;29;102903;-89
2021/11/06 05:47:14;;;;;;;;;6.25;6.00;;;;;16.10;52.08;99522.13;4819046;28;103879;-89
2021/11/06 05:49:41;;;;;;;;;5.00;5.00;;;;;16.11;51.77;99534.72;4818673;28;102526;-89
2021/11/06 05:52:28;;;;;;;;;5.00;5.00;;;;;16.10;51.90;99533.03;4810242;28;110498;-88
2021/11/06 05:54:55;;;;;;;;;7.00;5.67;;;;;16.10;51.87;99526.75;4817269;28;103905;-89
2021/11/06 05:57:22;;;;;;;;;6.00;5.00;;;;;16.10;51.67;99526.75;4819562;28;102605;-89
2021/11/06 05:59:49;;;;;;;;;6.00;5.25;;;;;16.10;52.43;99527.59;4810076;29;102915;-89
2021/11/06 06:02:16;;;;;;;;;5.00;4.00;;;;;16.10;52.40;99534.94;4818433;29;103980;-89
2021/11/06 06:04:43;;;;;;;;;4.25;4.00;;;;;16.09;52.09;99534.09;4815865;29;103731;-89
2021/11/06 06:07:10;;;;;;;;;7.00;5.67;;;;;16.09;52.26;99534.09;4818191;29;102629;-88
2021/11/06 06:09:37;;;;;;;;;8.33;6.33;;;;;16.08;52.17;99540.59;4815857;28;103723;-89
2021/11/06 06:12:04;;;;;;;;;6.00;5.33;;;;;16.08;51.57;99546.88;4820284;29;104378;-89
2021/11/06 06:14:31;;;;;;;;;5.67;5.00;;;;;16.08;52.14;99546.06;4826716;29;102598;-89
2021/11/06 06:16:58;;;;;;;;;6.00;5.00;;;;;16.08;51.60;99556.97;4808074;29;104176;-89
2021/11/06 06:19:25;;;;;;;;;6.75;6.75;;;;;16.07;51.95;99558.84;4825302;29;102306;-90
2021/11/06 06:21:53;;;;;;;;;5.00;4.67;;;;;16.06;51.78;99562.66;4826285;29;104369;-89
2021/11/06 06:24:20;;;;;;;;;6.00;5.00;;;;;16.07;51.75;99568.94;4779961;29;102230;-89
2021/11/06 06:26:47;;;;;;;;;7.25;5.75;;;;;16.08;51.51;99571.44;4802955;29;103547;-89
2021/11/06 06:29:14;;;;;;;;;6.50;4.75;;;;;16.07;52.04;99577.94;4820406;29;102256;-89
2021/11/06 06:31:41;;;;;;;;;5.67;5.00;;;;;16.07;52.10;99582.59;4819389;28;104307;-89
2021/11/06 06:34:08;;;;;;;;;5.00;4.00;;;;;16.06;52.06;99580.91;4823020;28;102406;-89
2021/11/06 06:36:35;;;;;;;;;7.33;5.67;;;;;16.07;51.77;99580.69;4802091;29;102978;-90
2021/11/06 06:39:02;;;;;;;;;4.00;3.00;;;;;16.07;52.13;99586.13;4818344;28;103467;-89
2021/11/06 06:41:29;;;;;;;;;5.00;4.00;;;;;16.07;51.36;99583.41;4821714;29;104187;-89
2021/11/06 06:43:56;;;;;;;;;5.67;4.33;;;;;16.07;51.83;99591.59;4826694;29;102571;-89
2021/11/06 06:46:27;;;;;;;;;5.00;5.00;;;;;16.07;52.14;99593.50;4798174;28;103120;-89
2021/11/06 06:48:54;;;;;;;;;5.00;5.00;;;;;16.07;51.97;99596.25;4819179;28;102259;-89
2021/11/06 06:51:21;;;;;;;;;7.50;6.50;;;;;16.06;51.66;99603.59;4830846;29;104064;-89
2021/11/06 06:53:48;;;;;;;;;5.67;5.67;;;;;16.05;52.03;99599.16;4822652;28;102688;-89
2021/11/06 06:56:15;;;;;;;;;5.00;5.00;;;;;16.05;52.16;99593.72;4815953;29;104271;-89
2021/11/06 06:58:42;;;;;;;;;4.67;4.67;;;;;16.05;51.45;99592.88;4796245;29;102312;-89
2021/11/06 07:01:10;;;;;;;;;5.00;5.00;;;;;16.05;52.02;99592.88;4813506;28;103961;-89
2021/11/06 07:03:37;;;;;;;;;6.67;6.00;;;;;16.07;51.72;99598.97;4799515;29;103664;-89
2021/11/06 07:06:04;;;;;;;;;5.33;4.00;;;;;16.06;51.54;99600.00;4816289;29;102165;-89
2021/11/06 07:08:31;;;;;;;;;4.00;3.00;;;;;16.05;51.60;99607.34;4796081;29;103357;-90
2021/11/06 07:10:58;;;;;;;;;6.50;4.75;;;;;16.05;51.29;99611.97;4811325;29;104096;-89
2021/11/06 07:13:27;;;;;;;;;4.25;4.25;;;;;16.05;52.04;99607.34;4811537;29;102530;-89
2021/11/06 07:15:54;;;;;;;;;4.00;4.00;;;;;16.05;51.89;99611.97;4809087;29;102522;-89
2021/11/06 07:18:21;;;;;;;;;7.25;5.00;;;;;16.05;51.63;99611.97;4814652;28;109863;-89
2021/11/06 07:20:48;;;;;;;;;6.25;5.00;;;;;16.04;51.69;99611.13;4822948;29;104230;-89
2021/11/06 07:23:15;;;;;;;;;6.67;5.00;;;;;16.03;51.48;99614.91;4814972;28;102495;-89
2021/11/06 07:25:42;;;;;;;;;4.33;4.00;;;;;16.05;51.40;99611.97;4812593;28;103191;-89
2021/11/06 07:28:09;;;;;;;;;5.00;5.00;;;;;16.06;51.44;99614.50;4822873;29;102534;-89
2021/11/06 07:30:36;;;;;;;;;5.00;4.00;;;;;16.05;51.13;99618.25;4823972;29;103935;-89
2021/11/06 07:33:03;;;;;;;;;2.00;2.00;;;;;16.05;51.56;99618.25;4812959;29;103897;-89
2021/11/06 07:35:30;;;;;;;;;3.25;3.25;;;;;16.05;51.88;99615.53;4827364;29;103237;-89
2021/11/06 07:37:58;;;;;;;;;6.00;5.00;;;;;16.05;52.06;99617.41;4824832;28;102922;-89
2021/11/06 07:40:26;;;;;;;;;4.00;4.00;;;;;16.05;52.13;99618.25;4814587;28;103909;-89
2021/11/06 07:42:53;;;;;;;;;5.67;5.00;;;;;16.04;51.67;99616.56;4811773;29;103714;-89
2021/11/06 07:45:20;;;;;;;;;4.25;4.25;;;;;16.06;51.48;99625.41;4815003;29;102590;-89
2021/11/06 07:47:47;;;;;;;;;2.50;2.00;;;;;16.05;52.00;99623.72;4792150;29;104142;-89
2021/11/06 07:50:14;;;;;;;;;5.00;5.00;;;;;16.06;51.55;99624.56;4799624;28;104069;-89
2021/11/06 07:52:42;;;;;;;;;3.75;3.75;;;;;16.06;51.53;99632.75;4806132;29;103550;-89
2021/11/06 07:55:09;;;;;;;;;4.00;4.00;;;;;16.05;51.28;99634.63;4816654;28;102489;-89
2021/11/06 07:57:36;;;;;;;;;5.75;4.75;;;;;16.04;51.85;99632.94;4822496;28;103475;-90
2021/11/06 08:00:08;;;;;;;;;2.00;1.00;;;;;16.06;51.48;99630.88;4801306;29;103061;-89
2021/11/06 08:02:35;;;;;;;;;7.67;5.00;;;;;16.06;51.16;99632.75;4802117;29;102450;-90
2021/11/06 08:05:05;;;;;;;;;3.67;3.67;;;;;16.06;51.87;99640.94;4821014;28;102492;-89
2021/11/06 08:07:35;;;;;;;;;4.00;4.00;;;;;16.07;51.55;99640.69;4829215;28;102291;-90
2021/11/06 08:10:03;;;;;;;;;4.33;4.00;;;;;16.08;51.37;99638.81;4811531;29;109121;-89
2021/11/06 08:12:30;;;;;;;;;4.33;3.33;;;;;16.08;51.26;99641.53;4823847;29;103114;-90
2021/11/06 08:14:57;;;;;;;;;4.00;4.00;;;;;16.07;51.77;99640.69;4830477;29;103510;-90
2021/11/06 08:17:24;;;;;;;;;5.33;4.00;;;;;16.08;51.71;99639.66;4815378;28;102688;-90
2021/11/06 08:19:51;;;;;;;;;3.33;3.33;;;;;16.08;51.56;99634.19;4818520;28;103914;-90
2021/11/06 08:22:22;;;;;;;;;6.33;4.00;;;;;16.08;51.53;99631.47;4818928;28;105398;-90
2021/11/06 08:24:49;;;;;;;;;5.00;4.00;;;;;16.10;51.45;99641.34;4815035;28;102391;-90
2021/11/06 08:27:16;;;;;;;;;4.00;3.00;;;;;16.10;51.56;99641.34;4823857;29;102349;-88
2021/11/06 08:29:43;;;;;;;;;5.00;4.33;;;;;16.08;51.75;99634.19;4823251;28;105397;-88
2021/11/06 08:32:10;;;;;;;;;4.00;3.00;;;;;16.11;52.34;99634.84;4806290;29;102651;-89
2021/11/06 08:34:38;;;;;;;;;4.75;4.25;;;;;16.14;52.92;99637.13;4808412;29;102799;-89
2021/11/06 08:37:05;;;;;;;;;4.00;4.00;;;;;16.16;52.66;99635.06;4816754;29;102435;-89
2021/11/06 08:39:35;;;;;;;;;5.00;4.00;;;;;16.17;52.22;99642.16;4816636;28;104115;-89
2021/11/06 08:42:03;;;;;;;;;5.67;5.67;;;;;16.19;52.41;99640.06;4817580;28;102488;-89
2021/11/06 08:44:30;;;;;;;;;5.00;3.00;;;;;16.19;52.13;99642.81;4822241;28;102305;-89
2021/11/06 08:46:57;;;;;;;;;4.00;4.00;;;;;16.19;51.99;99645.53;4806748;29;102712;-89
2021/11/06 08:49:24;;;;;;;;;5.00;4.00;;;;;16.21;52.77;99646.19;4819905;28;103361;-89
2021/11/06 08:51:59;;;;;;;;;5.33;5.00;;;;;16.20;52.75;99644.50;4815068;29;102617;-89
2021/11/06 08:54:26;;;;;;;;;3.00;3.00;;;;;16.21;52.79;99641.53;4801590;28;102596;-89
2021/11/06 08:56:53;;;;;;;;;5.00;4.00;;;;;16.22;52.47;99650.56;4802580;29;110986;-89
2021/11/06 08:59:20;;;;;;;;;5.00;4.75;;;;;16.23;52.55;99660.44;4819715;28;103713;-89
2021/11/06 09:01:50;;;;;;;;;4.00;4.00;;;;;16.23;52.35;99657.69;4815439;28;102533;-89
2021/11/06 09:04:17;;;;;;;;;5.00;5.00;;;;;16.22;52.54;99651.41;4824094;29;102760;-89
2021/11/06 09:06:45;;;;;;;;;4.33;4.00;;;;;16.23;52.51;99663.16;4806373;29;105053;-89
2021/11/06 09:09:14;;;;;;;;;5.25;3.50;;;;;16.23;52.33;99658.53;4824477;28;104602;-88
2021/11/06 09:11:41;;;;;;;;;5.50;5.00;;;;;16.23;53.42;99658.53;4798358;29;102513;-92
2021/11/06 09:14:09;;;;;;;;;6.00;4.50;;;;;16.24;52.93;99654.78;4809286;29;112626;-88
2021/11/06 09:16:37;;;;;;;;;3.00;3.00;;;;;16.25;53.29;99653.72;4803910;29;103000;-87
2021/11/06 09:19:04;;;;;;;;;4.50;4.00;;;;;16.25;52.89;99656.47;4816248;28;104162;-87
2021/11/06 09:21:31;;;;;;;;;4.00;4.00;;;;;16.26;53.54;99649.09;4782333;28;103839;-89
2021/11/06 09:24:04;;;;;;;;;5.00;4.00;;;;;16.28;53.93;99652.44;4808248;29;107435;-88
2021/11/06 09:26:38;;;;;;;;;5.00;5.00;;;;;16.21;50.29;99655.16;4800189;29;102864;-88
2021/11/06 09:29:07;;;;;;;;;5.00;5.00;;;;;16.17;51.11;99653.06;4828017;28;109779;-88
2021/11/06 09:31:34;;;;;;;;;7.75;6.75;;;;;16.18;51.28;99652.03;4807242;29;103712;-88
2021/11/06 09:34:02;;;;;;;;;5.67;4.67;;;;;16.17;51.82;99655.81;4812028;29;102594;-89
2021/11/06 09:36:29;;;;;;;;;4.33;4.00;;;;;16.17;52.46;99658.53;4824506;28;102667;-89
2021/11/06 09:38:57;;;;;;;;;5.75;5.00;;;;;16.18;53.05;99652.88;4811339;29;103739;-88
2021/11/06 09:41:24;;;;;;;;;5.50;4.75;;;;;16.18;52.21;99661.06;4791636;29;103610;-89
2021/11/06 09:43:52;;;;;;;;;5.00;4.25;;;;;16.18;53.00;99654.75;4818084;28;102634;-89
2021/11/06 09:46:19;;;;;;;;;6.25;5.00;;;;;16.16;53.26;99652.25;4813184;28;103383;-89
2021/11/06 09:48:46;;;;;;;;;6.00;6.00;;;;;16.18;53.17;99649.31;4801446;29;104084;-89
2021/11/06 09:51:16;;;;;;;;;4.00;4.00;;;;;16.19;53.67;99651.00;4806854;29;104012;-88
2021/11/06 09:53:45;;;;;;;;;4.67;4.33;;;;;16.17;53.44;99653.91;4825030;29;104123;-88
2021/11/06 09:56:16;;;;;;;;;5.67;5.67;;;;;16.17;52.77;99647.63;4780611;28;103492;-88
2021/11/06 09:58:43;;;;;;;;;6.50;6.00;;;;;16.16;52.88;99644.09;4798199;28;104342;-89
2021/11/06 10:01:11;;;;;;;;;8.25;7.00;;;;;16.18;52.43;99639.22;4792592;29;102581;-87
2021/11/06 10:03:38;;;;;;;;;5.50;4.00;;;;;16.19;53.77;99638.19;4816144;28;102468;-88
2021/11/06 10:06:35;;;;;;;;;5.50;5.50;;;;;16.20;53.31;99625.38;4814098;28;102590;-88
2021/11/06 10:09:08;;;;;;;;;8.67;5.00;;;;;16.24;53.41;99629.38;4791612;29;103245;-89
2021/11/06 10:11:39;;;;;;;;;5.00;4.00;;;;;16.23;53.33;99625.78;4781056;29;102531;-89
2021/11/06 10:14:22;;;;;;;;;5.00;4.00;;;;;16.23;53.47;99619.50;4796337;29;103570;-89
2021/11/06 10:16:58;;;;;;;;;5.00;5.00;;;;;16.23;53.44;99617.59;4798393;29;102724;-88
2021/11/06 10:19:39;;;;;;;;;5.00;5.00;;;;;16.25;53.63;99622.88;4797474;28;103614;-90
2021/11/06 10:22:25;;;;;;;;;7.00;6.33;;;;;16.22;52.43;99613.19;4814065;28;102897;-90
2021/11/06 10:24:59;;;;;;;;;9.00;6.00;;;;;16.22;53.35;99607.75;4806771;28;102369;-90
2021/11/06 10:27:31;;;;;;;;;4.67;4.67;;;;;16.24;53.83;99610.25;4793786;29;103019;-91
2021/11/06 10:30:18;;;;;;;;;7.00;4.75;;;;;16.25;54.12;99606.50;4810705;29;105565;-91
2021/11/06 10:33:12;;;;;;;;;7.50;5.00;;;;;16.26;53.80;99619.06;4776155;29;104157;-90
2021/11/06 10:36:09;;;;;;;;;6.00;5.67;;;;;16.26;54.03;99611.72;4723427;29;103405;-91
2021/11/06 10:39:00;;;;;;;;;4.33;4.33;;;;;16.24;53.86;99600.19;4582607;29;102958;-91
2021/11/06 10:41:34;;;;;;;;;5.00;5.00;;;;;16.22;53.87;99577.72;4609543;29;105056;-91
2021/11/06 10:44:11;;;;;;;;;4.33;4.33;;;;;16.24;54.26;99589.28;4599236;29;102842;-91
2021/11/06 10:47:02;;;;;;;;;5.33;4.00;;;;;16.27;54.00;99593.44;4588378;29;102722;-91
2021/11/06 10:49:49;;;;;;;;;4.00;4.00;;;;;16.28;54.55;99578.75;4603804;29;102816;-90
2021/11/06 10:52:38;;;;;;;;;6.33;5.00;;;;;16.30;54.81;99573.94;4559998;29;110218;-91
2021/11/06 10:55:38;;;;;;;;;5.67;5.33;;;;;16.30;54.84;99571.22;4563444;29;103524;-91
2021/11/06 10:58:51;;;;;;;;;5.00;4.33;;;;;16.33;54.17;99574.34;4586470;29;102876;-90
2021/11/06 11:01:55;;;;;;;;;5.67;5.00;;;;;16.35;54.27;99580.41;4551052;29;103393;-91
2021/11/06 11:05:14;;;;;;;;;6.00;4.00;;;;;16.34;53.77;99586.94;4564980;29;107305;-91
2021/11/06 11:08:45;;;;;;;;;6.00;4.00;;;;;16.38;55.05;99579.16;4561509;28;102846;-90
2021/11/06 11:11:33;;;;;;;;;5.00;5.00;;;;;16.33;54.82;99563.44;4577846;28;102806;-91
2021/11/06 11:14:19;;;;;;;;;5.33;5.00;;;;;16.41;55.50;99573.25;4557128;28;102721;-91
2021/11/06 11:16:52;;;;;;;;;3.33;3.00;;;;;16.34;56.29;99562.38;4590207;29;105418;-91
2021/11/06 11:19:39;;;;;;;;;5.25;5.00;;;;;16.41;55.30;99563.19;4562046;29;103706;-90
2021/11/06 11:22:30;;;;;;;;;5.00;5.00;;;;;16.44;55.56;99568.19;4796662;29;102575;-90
2021/11/06 11:25:01;;;;;;;;;5.00;4.00;;;;;16.41;54.90;99554.16;4808488;28;103346;-87
2021/11/06 11:27:44;;;;;;;;;5.67;5.00;;;;;16.49;54.56;99553.91;4796429;29;108453;-86
2021/11/06 11:30:12;;;;;;;;;4.67;4.00;;;;;16.48;55.37;99546.75;4819165;28;103644;-87
2021/11/06 11:32:39;;;;;;;;;5.00;4.00;;;;;16.45;55.53;99548.03;4822527;29;102723;-88
2021/11/06 11:35:09;;;;;;;;;3.67;3.00;;;;;16.47;55.50;99539.66;4776855;28;103674;-88